Time;durP1;ratioP1;P1;durP2;ratioP2;P2;SDS_P1;SDS_P2;PMS_P1;PMS_P2;Temp;Humidity;BMP_temperature;BMP_pressure;BME280_temperature;BME280_humidity;BME280_pressure;Samples;Min_cycle;Max_cycle;Signal;HPM_P1;HPM_P2
2022/08/19 08:15:24;;;;;;;37.15;21.30;;;;;;;20.09;73.52;96314.28;2086170;28;20539;-66
2022/08/19 08:16:29;;;;;;;27.23;17.95;;;;;;;20.21;73.35;96315.88;2079595;28;20194;-69
2022/08/19 08:17:33;;;;;;;32.33;21.02;;;;;;;20.25;73.00;96319.91;2076111;28;20211;-69
2022/08/19 08:18:51;;;;;;;33.65;19.80;;;;;;;20.04;73.11;96328.81;2077089;28;20198;-69
2022/08/19 08:19:53;;;;;;;29.33;20.60;;;;;;;20.13;73.43;96323.69;2075267;28;20245;-68
2022/08/19 08:20:56;;;;;;;35.83;20.50;;;;;;;20.08;72.97;96316.13;2072682;28;20187;-69
2022/08/19 08:21:59;;;;;;;30.25;21.85;;;;;;;20.05;73.47;96319.06;2072429;28;20227;-69
2022/08/19 08:24:21;;;;;;;29.17;21.25;;;;;;;20.00;73.61;96332.69;2074191;28;20198;-69
2022/08/19 08:25:30;;;;;;;27.48;18.58;;;;;;;20.06;73.62;96328.66;2071046;28;20202;-69
2022/08/19 08:26:34;;;;;;;32.60;19.77;;;;;;;20.10;73.42;96331.88;2070247;28;20226;-67
2022/08/19 08:27:40;;;;;;;29.88;20.02;;;;;;;20.18;72.97;96329.41;2070877;28;20575;-68
2022/08/19 08:28:43;;;;;;;24.50;19.13;;;;;;;20.36;72.59;96334.88;2072008;28;20710;-67
2022/08/19 09:03:36;;;;;;;30.55;18.63;;;;;;;20.96;70.65;96349.88;2084485;28;20561;-68
2022/08/19 09:04:38;;;;;;;27.50;18.10;;;;;;;21.10;70.28;96354.75;2089201;28;20208;-69
2022/08/19 09:05:58;;;;;;;32.03;20.27;;;;;;;21.11;69.93;96351.13;2088825;28;20855;-69
2022/08/19 09:07:41;;;;;;;28.55;18.20;;;;;;;20.73;70.97;96354.63;2076485;28;20229;-69
2022/08/19 09:08:50;;;;;;;28.63;15.95;;;;;;;20.94;70.67;96344.72;2066443;28;20626;-69
2022/08/19 09:10:09;;;;;;;30.80;17.90;;;;;;;21.23;69.92;96349.16;2073237;28;20195;-69
2022/08/19 09:11:17;;;;;;;29.65;19.80;;;;;;;21.21;69.81;96351.13;2074721;28;20195;-69
2022/08/19 09:12:57;;;;;;;25.08;17.23;;;;;;;21.20;69.92;96350.28;2073210;28;20201;-68
2022/08/19 09:14:08;;;;;;;32.03;18.15;;;;;;;21.47;69.24;96350.50;2073030;28;20226;-68
2022/08/19 09:15:36;;;;;;;27.38;16.65;;;;;;;21.43;69.50;96349.13;2071220;28;20211;-69
2022/08/19 09:16:40;;;;;;;29.27;18.30;;;;;;;21.48;69.04;96341.56;2072577;28;20770;-70
2022/08/19 09:17:41;;;;;;;26.63;17.25;;;;;;;21.34;69.38;96337.53;2073613;28;20214;-69
2022/08/19 09:18:52;;;;;;;27.15;16.42;;;;;;;21.64;68.67;96346.31;2075758;28;20205;-69
2022/08/19 09:20:22;;;;;;;26.27;17.65;;;;;;;21.55;68.62;96342.69;2073827;28;20202;-69
2022/08/19 10:03:33;;;;;;;24.40;14.05;;;;;;;21.49;68.50;96365.31;2092335;28;20588;-68
2022/08/19 10:05:57;;;;;;;26.40;16.02;;;;;;;21.40;67.91;96357.38;2093051;28;20208;-68
2022/08/19 10:06:59;;;;;;;16.27;12.95;;;;;;;21.33;67.89;96359.75;2086103;28;20698;-68
2022/08/19 10:08:01;;;;;;;19.02;12.73;;;;;;;21.40;67.88;96366.16;2085795;28;20647;-69
2022/08/19 10:09:07;;;;;;;20.98;13.52;;;;;;;21.37;67.67;96367.28;2083766;28;20207;-68
2022/08/19 10:10:09;;;;;;;27.15;14.32;;;;;;;21.35;67.72;96371.06;2083627;28;20215;-69
2022/08/19 10:11:12;;;;;;;18.02;12.13;;;;;;;21.48;67.55;96366.31;2084480;28;20282;-69
2022/08/19 10:12:34;;;;;;;16.48;12.15;;;;;;;21.66;66.37;96358.44;2085921;28;20211;-69
2022/08/19 10:13:36;;;;;;;18.23;12.98;;;;;;;21.38;66.71;96365.47;2085384;28;20861;-69
2022/08/19 10:14:38;;;;;;;23.23;12.55;;;;;;;21.41;66.68;96367.84;2085037;28;20193;-69
2022/08/19 10:15:40;;;;;;;21.77;12.80;;;;;;;21.49;66.49;96364.47;2082931;28;20349;-69
2022/08/19 10:16:49;;;;;;;18.45;12.32;;;;;;;21.57;65.75;96358.47;2084862;28;20224;-69
2022/08/19 10:17:50;;;;;;;19.10;11.93;;;;;;;21.66;65.76;96369.09;2082033;28;20205;-69
2022/08/19 10:18:56;;;;;;;15.68;11.75;;;;;;;21.74;65.27;96363.03;2086126;28;20723;-71
2022/08/19 10:19:59;;;;;;;21.67;11.75;;;;;;;21.72;65.47;96364.16;2086721;28;20605;-71
2022/08/19 10:49:26;;;;;;;19.65;12.00;;;;;;;23.28;61.27;96343.75;2090747;28;20547;-68
2022/08/19 10:53:10;;;;;;;22.52;12.45;;;;;;;24.22;58.03;96334.09;2073948;28;20293;-72
2022/08/19 10:54:12;;;;;;;19.00;12.15;;;;;;;24.43;57.39;96333.69;2074392;28;20198;-72
2022/08/19 10:56:52;;;;;;;14.02;9.55;;;;;;;24.74;56.17;96324.25;2076567;28;20229;-72
2022/08/19 10:57:54;;;;;;;13.88;9.40;;;;;;;24.85;55.51;96331.09;2075183;28;20227;-72
2022/08/19 10:59:04;;;;;;;15.90;8.98;;;;;;;24.81;56.11;96332.44;2074683;28;20229;-72
2022/08/19 11:00:06;;;;;;;18.75;9.68;;;;;;;24.68;55.85;96314.22;2076066;28;20198;-71
2022/08/19 11:01:08;;;;;;;17.55;8.98;;;;;;;24.54;55.93;96331.69;2071420;28;20681;-71
2022/08/19 11:02:11;;;;;;;17.17;11.02;;;;;;;24.63;56.01;96322.69;2070581;28;20253;-72
2022/08/19 11:03:13;;;;;;;18.63;9.48;;;;;;;24.81;55.77;96319.09;2071198;28;20213;-72
2022/08/19 11:04:17;;;;;;;17.13;10.63;;;;;;;24.77;55.30;96318.56;2075940;28;20216;-72
2022/08/19 11:05:19;;;;;;;16.52;9.75;;;;;;;24.44;55.59;96330.00;2078813;28;20667;-72
2022/08/19 11:06:27;;;;;;;16.20;9.48;;;;;;;24.32;56.30;96315.31;2068784;28;20203;-72
2022/08/19 11:07:28;;;;;;;15.40;8.80;;;;;;;24.35;56.23;96330.16;2074051;28;20231;-71
2022/08/19 11:08:30;;;;;;;14.32;9.30;;;;;;;24.08;56.96;96324.06;2078221;28;20201;-72
2022/08/19 11:09:39;;;;;;;14.43;9.52;;;;;;;23.64;57.74;96317.00;2078787;28;20242;-71
2022/08/19 11:10:43;;;;;;;12.98;9.88;;;;;;;23.52;58.28;96320.94;2077862;28;20203;-71
2022/08/19 11:33:10;;;;;;;10.88;6.55;;;;;;;23.91;57.36;96318.66;2087799;27;20547;-69
2022/08/19 11:34:17;;;;;;;16.08;7.20;;;;;;;24.25;57.07;96317.78;2088415;28;20199;-69
2022/08/19 11:35:19;;;;;;;14.40;7.32;;;;;;;24.40;55.39;96319.81;2091285;28;20192;-69
2022/08/19 11:36:21;;;;;;;14.38;7.22;;;;;;;24.71;54.70;96312.06;2087978;28;20204;-69
2022/08/19 11:37:22;;;;;;;11.15;6.70;;;;;;;25.03;53.92;96333.63;2075626;28;20793;-70
2022/08/19 11:38:25;;;;;;;11.43;6.90;;;;;;;24.95;53.34;96326.44;2074077;28;20582;-70
2022/08/19 11:39:29;;;;;;;9.93;6.53;;;;;;;24.75;54.30;96332.09;2076200;28;20679;-69
2022/08/19 11:40:33;;;;;;;8.75;6.47;;;;;;;24.64;53.87;96324.41;2075218;28;20276;-69
2022/08/19 11:41:35;;;;;;;14.75;7.05;;;;;;;24.50;54.28;96325.03;2073585;28;20694;-69
2022/08/19 11:42:55;;;;;;;11.30;6.75;;;;;;;24.38;54.52;96329.81;2077184;28;20199;-70
2022/08/19 11:43:57;;;;;;;12.07;6.45;;;;;;;24.07;55.02;96336.53;2076085;28;20294;-69
2022/08/19 11:44:58;;;;;;;9.85;6.90;;;;;;;24.01;54.41;96331.03;2078506;28;20538;-70
2022/08/19 11:46:03;;;;;;;7.25;5.88;;;;;;;23.89;54.92;96333.94;2078215;28;20204;-70
2022/08/19 11:47:05;;;;;;;9.35;6.05;;;;;;;23.81;54.91;96333.91;2071095;28;20232;-69
2022/08/19 11:48:09;;;;;;;12.30;7.00;;;;;;;23.75;55.08;96332.72;2074243;28;20243;-69
2022/08/19 11:49:11;;;;;;;9.95;6.53;;;;;;;23.79;55.64;96334.09;2073630;28;20201;-70
2022/08/19 11:50:16;;;;;;;14.25;5.80;;;;;;;23.94;55.22;96333.50;2078167;28;20291;-70
2022/08/19 11:51:22;;;;;;;13.98;6.35;;;;;;;24.15;54.59;96332.25;2075128;28;20740;-69
2022/08/19 11:52:23;;;;;;;14.32;6.95;;;;;;;24.20;54.42;96333.44;2073859;28;20199;-70
2022/08/19 11:53:25;;;;;;;9.88;5.82;;;;;;;24.39;53.58;96326.16;2075534;28;20200;-71
2022/08/19 11:54:26;;;;;;;12.55;6.53;;;;;;;24.36;53.59;96329.97;2073984;28;20692;-70
2022/08/19 11:55:28;;;;;;;10.77;6.22;;;;;;;24.49;53.08;96326.84;2075191;28;20702;-70
2022/08/19 11:56:29;;;;;;;11.30;5.72;;;;;;;24.49;52.75;96318.84;2074977;28;20209;-70
2022/08/19 11:57:31;;;;;;;8.88;5.63;;;;;;;24.67;52.17;96324.09;2075823;28;20259;-70
2022/08/19 11:58:34;;;;;;;7.10;5.30;;;;;;;24.83;51.75;96331.25;2073864;28;20197;-70
2022/08/19 11:59:35;;;;;;;9.07;5.25;;;;;;;24.80;51.56;96320.94;2079187;28;20205;-72
2022/08/19 12:00:38;;;;;;;8.20;5.65;;;;;;;25.35;50.49;96324.75;2077783;28;20523;-71
2022/08/19 12:01:43;;;;;;;10.15;5.82;;;;;;;26.10;49.17;96338.81;2075802;28;20222;-70
2022/08/19 12:02:45;;;;;;;9.93;5.28;;;;;;;26.08;48.37;96314.09;2074737;28;20198;-72
2022/08/19 12:03:48;;;;;;;6.07;5.40;;;;;;;26.72;47.09;96327.25;2071784;28;20201;-70
2022/08/19 12:04:49;;;;;;;8.48;5.05;;;;;;;27.22;45.62;96324.22;2073164;28;20206;-70
2022/08/19 12:05:51;;;;;;;10.65;5.40;;;;;;;27.17;45.34;96319.44;2072676;28;20550;-66
2022/08/19 12:06:52;;;;;;;7.72;4.55;;;;;;;27.26;45.66;96319.34;2071977;28;20218;-67
2022/08/19 12:07:54;;;;;;;8.18;4.90;;;;;;;27.10;45.56;96326.50;2077110;28;20291;-66
2022/08/19 12:08:58;;;;;;;7.28;5.55;;;;;;;27.23;45.29;96323.22;2074586;28;20202;-66
2022/08/19 12:10:01;;;;;;;7.30;4.65;;;;;;;27.46;44.59;96320.50;2076576;28;20570;-65
2022/08/19 12:11:07;;;;;;;6.20;4.22;;;;;;;27.52;44.19;96319.78;2075305;28;20207;-66
2022/08/19 12:12:09;;;;;;;6.38;5.07;;;;;;;27.85;43.82;96326.66;2075163;28;20576;-66
2022/08/19 12:13:18;;;;;;;7.43;5.55;;;;;;;27.99;43.71;96319.63;2073589;28;20214;-66
2022/08/19 12:14:19;;;;;;;11.43;5.80;;;;;;;27.88;43.68;96318.22;2075759;28;20580;-66
2022/08/19 12:15:21;;;;;;;7.38;5.57;;;;;;;27.78;44.19;96326.56;2077810;28;20861;-66
2022/08/19 12:16:26;;;;;;;10.07;5.93;;;;;;;27.69;44.19;96322.28;2073068;28;20266;-67
2022/08/19 12:17:30;;;;;;;8.52;5.30;;;;;;;28.12;43.83;96325.16;2073918;28;20206;-67
2022/08/19 12:18:32;;;;;;;11.02;5.85;;;;;;;27.85;44.05;96316.75;2076607;28;20198;-67
2022/08/19 12:19:33;;;;;;;11.68;5.68;;;;;;;27.90;44.15;96318.88;2073481;28;20202;-65
2022/08/19 12:20:36;;;;;;;9.35;5.97;;;;;;;27.86;43.72;96313.06;2075186;28;21002;-64
2022/08/19 12:21:38;;;;;;;13.32;6.10;;;;;;;27.00;45.45;96315.22;2071860;28;20605;-64
2022/08/19 12:22:42;;;;;;;10.65;5.45;;;;;;;26.83;46.35;96318.03;2072116;28;20205;-65
2022/08/19 12:23:47;;;;;;;12.23;5.35;;;;;;;27.00;46.22;96316.03;2076871;28;20202;-64
2022/08/19 12:24:53;;;;;;;13.00;5.28;;;;;;;26.67;46.61;96302.84;2075360;28;20672;-65
2022/08/19 12:25:56;;;;;;;10.23;5.50;;;;;;;26.75;46.42;96307.34;2071049;28;20549;-65
2022/08/19 12:27:01;;;;;;;10.38;5.90;;;;;;;26.40;46.74;96296.19;2070610;28;20226;-65
2022/08/19 12:28:03;;;;;;;12.93;5.53;;;;;;;26.61;47.19;96310.78;2071046;28;20209;-65
2022/08/19 12:29:05;;;;;;;8.45;6.07;;;;;;;27.18;45.73;96314.88;2071064;28;20272;-64
2022/08/19 12:30:09;;;;;;;9.93;5.43;;;;;;;28.13;43.70;96302.69;2073383;28;20634;-65
2022/08/19 12:31:14;;;;;;;6.40;4.75;;;;;;;28.69;42.44;96303.16;2072243;28;20566;-65
2022/08/19 12:32:16;;;;;;;6.35;5.18;;;;;;;29.23;42.12;96305.28;2072752;28;20206;-65
2022/08/19 12:33:25;;;;;;;9.98;5.15;;;;;;;29.61;41.28;96301.44;2075213;28;20225;-65
2022/08/19 12:34:29;;;;;;;11.15;5.53;;;;;;;29.80;40.78;96307.97;2074914;28;20198;-65
2022/08/19 12:35:31;;;;;;;5.60;4.70;;;;;;;30.03;40.28;96305.03;2075080;28;20195;-65
2022/08/19 12:36:33;;;;;;;8.13;4.20;;;;;;;29.98;40.83;96302.09;2072931;28;20816;-65
2022/08/19 12:37:35;;;;;;;9.45;5.05;;;;;;;29.17;41.00;96293.44;2070108;28;20720;-65
2022/08/19 12:38:38;;;;;;;9.05;5.57;;;;;;;28.71;41.76;96290.34;2075006;28;20257;-65
2022/08/19 12:39:41;;;;;;;11.85;6.07;;;;;;;28.68;42.08;96291.56;2073047;28;20190;-65
2022/08/19 12:40:47;;;;;;;6.43;5.15;;;;;;;28.54;41.16;96301.28;2073629;28;20329;-65
2022/08/19 12:41:48;;;;;;;17.33;5.60;;;;;;;27.97;41.86;96289.44;2074458;28;20530;-65
2022/08/19 12:42:55;;;;;;;9.85;5.47;;;;;;;27.93;42.33;96298.91;2074786;28;20202;-65
2022/08/19 12:43:56;;;;;;;9.45;5.30;;;;;;;28.29;41.89;96304.34;2072660;28;20198;-65
2022/08/19 12:44:58;;;;;;;6.75;4.40;;;;;;;27.98;43.27;96302.66;2067447;28;20203;-65
2022/08/19 12:45:59;;;;;;;7.68;5.40;;;;;;;28.31;42.38;96307.66;2066841;28;20199;-65
2022/08/19 12:47:04;;;;;;;7.07;4.70;;;;;;;28.48;42.04;96312.78;2066639;28;20956;-65
2022/08/19 12:48:09;;;;;;;7.25;5.03;;;;;;;28.19;42.04;96304.63;2067240;28;20819;-65
2022/08/19 12:49:33;;;;;;;7.40;5.00;;;;;;;28.09;42.22;96312.13;2069268;28;20203;-65
2022/08/19 12:50:54;;;;;;;6.22;4.35;;;;;;;27.81;42.66;96303.91;2069602;28;20688;-65
2022/08/19 12:51:57;;;;;;;8.40;4.68;;;;;;;27.70;42.99;96307.88;2068592;28;20272;-65
2022/08/19 12:52:59;;;;;;;6.53;4.63;;;;;;;27.63;42.67;96305.09;2069102;28;20207;-64
2022/08/19 12:54:01;;;;;;;7.85;5.10;;;;;;;27.38;43.09;96309.84;2069112;28;20225;-65
2022/08/19 12:55:05;;;;;;;8.40;4.93;;;;;;;27.36;43.29;96301.16;2068697;28;20203;-65
2022/08/19 12:56:09;;;;;;;6.55;5.28;;;;;;;27.55;43.17;96310.53;2068986;28;20195;-65
2022/08/19 12:57:13;;;;;;;6.45;4.90;;;;;;;26.81;43.90;96312.00;2068771;28;20654;-65
2022/08/19 12:58:14;;;;;;;10.15;5.05;;;;;;;27.04;43.84;96317.34;2068052;28;20241;-65
2022/08/19 12:59:17;;;;;;;7.70;4.55;;;;;;;27.24;43.54;96308.00;2069748;28;20233;-65
2022/08/19 13:00:21;;;;;;;11.07;5.20;;;;;;;26.81;44.15;96312.00;2069705;28;20203;-65
2022/08/19 13:01:22;;;;;;;8.90;4.95;;;;;;;26.83;44.52;96317.16;2068100;28;20555;-64
2022/08/19 13:02:24;;;;;;;10.10;7.03;;;;;;;26.84;44.26;96325.03;2066410;28;20202;-63
2022/08/19 13:03:29;;;;;;;6.03;4.93;;;;;;;26.85;44.04;96321.34;2071033;28;20835;-64
2022/08/19 13:04:30;;;;;;;24.27;10.68;;;;;;;26.66;44.23;96319.09;2065134;28;20210;-63
2022/08/19 13:05:33;;;;;;;17.35;12.65;;;;;;;26.57;44.55;96318.31;2065192;28;20487;-64
2022/08/19 13:06:36;;;;;;;6.72;5.20;;;;;;;26.69;44.48;96322.28;2067285;28;20226;-63
2022/08/19 13:07:39;;;;;;;12.20;5.10;;;;;;;26.61;44.14;96311.59;2069747;28;20226;-63
2022/08/19 13:08:41;;;;;;;6.75;4.70;;;;;;;26.63;44.14;96317.63;2069942;28;20210;-64
2022/08/19 13:09:46;;;;;;;7.40;4.60;;;;;;;26.85;43.77;96318.66;2066406;28;20222;-64
2022/08/19 13:10:48;;;;;;;7.47;4.88;;;;;;;26.88;43.56;96314.78;2072213;28;20202;-64
2022/08/19 13:11:49;;;;;;;8.25;4.50;;;;;;;26.84;43.57;96318.84;2066475;28;20229;-64
2022/08/19 13:12:52;;;;;;;6.43;4.80;;;;;;;26.89;43.36;96317.31;2066814;28;20195;-63
2022/08/19 13:13:54;;;;;;;5.97;4.32;;;;;;;26.63;44.01;96322.16;2066402;28;20215;-63
2022/08/19 13:14:56;;;;;;;8.00;4.57;;;;;;;26.36;45.53;96326.97;2067947;28;20230;-64
2022/08/19 13:16:02;;;;;;;14.80;8.25;;;;;;;26.00;47.17;96325.59;2069161;28;20194;-63
2022/08/19 13:17:04;;;;;;;16.98;13.60;;;;;;;25.90;48.18;96333.00;2068101;28;20222;-63
2022/08/19 13:18:07;;;;;;;12.48;7.10;;;;;;;25.69;49.10;96325.56;2069889;28;20206;-63
2022/08/19 13:19:09;;;;;;;9.90;7.28;;;;;;;25.41;49.71;96326.78;2068593;28;20230;-63
2022/08/19 13:20:10;;;;;;;9.60;6.28;;;;;;;25.36;50.20;96331.78;2065002;28;20245;-63
2022/08/19 13:21:12;;;;;;;8.85;7.10;;;;;;;25.26;50.41;96323.09;2064608;28;20757;-63
2022/08/19 13:22:14;;;;;;;8.65;7.28;;;;;;;25.29;50.29;96324.59;2067183;28;20250;-63
2022/08/19 13:23:15;;;;;;;11.32;7.30;;;;;;;25.44;50.28;96317.56;2069656;28;20195;-63
2022/08/19 13:24:18;;;;;;;10.63;6.47;;;;;;;25.54;49.60;96320.06;2069472;28;20761;-63
2022/08/19 13:25:20;;;;;;;11.85;6.75;;;;;;;25.59;49.36;96323.06;2067971;28;20203;-63
2022/08/19 13:26:22;;;;;;;12.18;6.68;;;;;;;25.69;48.89;96317.53;2067434;28;20206;-63
2022/08/19 13:27:24;;;;;;;7.65;6.45;;;;;;;25.71;48.85;96320.84;2069274;28;20199;-64
2022/08/19 13:28:25;;;;;;;12.20;7.05;;;;;;;25.94;48.65;96328.13;2064316;28;20204;-63
2022/08/19 13:33:30;;;;;;;14.40;6.95;;;;;;;26.04;48.55;96305.53;2067553;28;20881;-65
2022/08/19 13:34:34;;;;;;;13.27;6.88;;;;;;;25.61;49.41;96322.88;2067981;28;20195;-66
2022/08/19 13:35:44;;;;;;;9.18;6.32;;;;;;;25.72;49.72;96327.88;2064936;28;20352;-65
2022/08/19 13:36:46;;;;;;;10.50;6.88;;;;;;;25.67;49.82;96328.38;2064383;28;20245;-65
2022/08/19 13:37:48;;;;;;;8.38;6.45;;;;;;;25.56;50.13;96321.56;2070439;28;20198;-65
2022/08/19 13:38:49;;;;;;;9.27;6.65;;;;;;;25.63;49.94;96340.44;2064834;28;20203;-65
2022/08/19 13:39:51;;;;;;;10.88;6.65;;;;;;;25.55;49.79;96325.25;2064874;28;20312;-66
2022/08/19 13:40:55;;;;;;;11.10;6.95;;;;;;;25.75;49.59;96336.41;2066953;28;20230;-65
2022/08/19 13:41:57;;;;;;;10.00;6.28;;;;;;;25.73;49.56;96325.03;2070146;28;20223;-65
2022/08/19 13:42:59;;;;;;;7.63;6.43;;;;;;;25.68;49.52;96329.22;2070995;28;20281;-65
2022/08/19 13:44:01;;;;;;;10.63;7.32;;;;;;;25.66;49.56;96332.09;2071382;28;20198;-65
2022/08/19 13:45:06;;;;;;;7.20;5.97;;;;;;;25.66;49.75;96325.88;2068785;28;20558;-65
2022/08/19 13:46:13;;;;;;;8.60;6.65;;;;;;;25.61;49.63;96334.44;2064844;28;20213;-64
2022/08/19 13:47:15;;;;;;;12.55;7.47;;;;;;;25.42;49.67;96327.63;2064522;28;20246;-65
2022/08/19 13:48:18;;;;;;;8.80;7.03;;;;;;;25.26;50.01;96333.78;2065928;28;20643;-65
2022/08/19 13:49:20;;;;;;;11.15;7.28;;;;;;;25.23;50.07;96332.28;2066851;28;20211;-65
2022/08/19 13:50:25;;;;;;;10.60;7.05;;;;;;;25.23;50.43;96326.09;2067607;28;20206;-65
2022/08/19 13:51:26;;;;;;;10.63;6.30;;;;;;;25.09;50.52;96331.13;2068693;28;20664;-65
2022/08/19 14:36:44;;;;;;;8.85;7.35;;;;;;;24.28;50.73;96322.78;2105054;27;20561;-65
2022/08/19 14:37:46;;;;;;;13.02;7.05;;;;;;;24.34;51.20;96332.00;2103856;28;20195;-65
2022/08/19 14:38:48;;;;;;;11.48;6.40;;;;;;;24.40;51.44;96335.81;2103877;28;20204;-65
2022/08/19 14:39:50;;;;;;;6.95;6.22;;;;;;;24.24;50.91;96324.13;2103948;28;20188;-64
2022/08/19 14:40:51;;;;;;;11.40;6.75;;;;;;;24.26;50.84;96323.94;2103718;28;20215;-60
2022/08/19 14:41:56;;;;;;;9.85;6.97;;;;;;;24.21;51.31;96332.44;2103528;28;20242;-61
2022/08/19 14:43:00;;;;;;;10.25;6.55;;;;;;;24.14;51.82;96328.75;2103746;28;20202;-60
2022/08/19 14:44:02;;;;;;;8.70;6.22;;;;;;;24.17;51.35;96331.09;2103616;28;20497;-61
2022/08/19 14:45:07;;;;;;;17.50;7.05;;;;;;;24.21;50.76;96318.28;2102758;28;20201;-59
2022/08/19 14:46:10;;;;;;;10.75;7.07;;;;;;;24.27;50.59;96323.78;2104059;28;20213;-60
2022/08/19 15:08:03;;;;;;;10.60;5.32;;;;;;;25.86;45.99;96312.97;2085046;28;20560;-64
2022/08/19 15:09:05;;;;;;;9.75;5.70;;;;;;;26.18;45.93;96314.72;2080907;28;20209;-64
2022/08/19 15:10:07;;;;;;;8.25;5.38;;;;;;;26.53;44.95;96322.38;2081602;28;20193;-64
2022/08/19 15:11:11;;;;;;;6.07;5.43;;;;;;;26.48;44.29;96325.56;2079532;28;20198;-64
2022/08/19 15:12:13;;;;;;;9.77;5.93;;;;;;;26.52;44.45;96318.03;2071100;28;20585;-64
2022/08/19 15:13:24;;;;;;;7.53;5.30;;;;;;;26.84;43.85;96319.69;2074846;28;20199;-65
2022/08/19 15:14:27;;;;;;;8.48;6.20;;;;;;;26.96;43.93;96321.94;2074901;28;20892;-65
2022/08/19 15:15:28;;;;;;;6.40;5.63;;;;;;;27.16;44.28;96323.13;2075550;28;20197;-65
2022/08/19 15:16:31;;;;;;;8.00;6.32;;;;;;;26.96;43.91;96319.28;2081949;28;20349;-65
2022/08/19 15:17:32;;;;;;;11.60;6.50;;;;;;;27.01;44.06;96315.03;2078536;28;20198;-65
2022/08/19 15:18:56;;;;;;;21.80;5.40;;;;;;;27.18;43.36;96310.34;2074512;28;20204;-64
2022/08/19 15:19:58;;;;;;;8.00;5.80;;;;;;;26.98;43.94;96314.56;2075297;28;20633;-66
2022/08/19 15:21:00;;;;;;;11.70;5.00;;;;;;;26.98;44.22;96325.25;2073802;28;20193;-66
2022/08/19 15:22:02;;;;;;;5.72;5.10;;;;;;;26.94;43.85;96319.44;2074183;28;20214;-66
2022/08/19 15:23:04;;;;;;;6.70;4.88;;;;;;;27.05;43.33;96319.00;2070980;28;20190;-67
2022/08/19 15:24:05;;;;;;;5.68;4.70;;;;;;;27.17;42.29;96323.94;2070657;28;20201;-66
2022/08/19 15:25:09;;;;;;;5.85;5.10;;;;;;;27.09;42.78;96315.97;2074691;28;20665;-67
2022/08/19 15:26:12;;;;;;;6.63;5.03;;;;;;;27.18;42.25;96318.38;2073242;28;20225;-66
2022/08/19 15:27:16;;;;;;;7.70;4.85;;;;;;;27.46;42.25;96314.31;2074838;28;20201;-66
2022/08/19 15:28:18;;;;;;;12.82;5.22;;;;;;;27.45;42.03;96318.88;2071023;28;20208;-66
2022/08/19 15:29:19;;;;;;;5.85;4.20;;;;;;;27.36;41.56;96320.75;2071121;28;20336;-66
2022/08/19 15:30:27;;;;;;;5.75;4.20;;;;;;;27.06;42.19;96322.53;2072990;28;20802;-66
2022/08/19 15:31:34;;;;;;;6.25;4.65;;;;;;;27.04;42.43;96322.69;2074548;28;20194;-66
2022/08/19 15:32:38;;;;;;;6.20;4.43;;;;;;;26.70;43.20;96317.72;2071079;28;20212;-66
2022/08/19 15:33:43;;;;;;;7.05;4.57;;;;;;;26.67;43.54;96324.28;2071081;28;20198;-66
2022/08/19 15:34:48;;;;;;;6.95;4.30;;;;;;;26.49;43.45;96321.88;2073054;28;20193;-66
2022/08/19 15:35:50;;;;;;;5.03;4.40;;;;;;;26.36;43.83;96324.28;2073867;28;20750;-66
2022/08/19 15:36:52;;;;;;;6.50;4.63;;;;;;;26.42;43.88;96323.59;2075174;28;20222;-66
2022/08/19 15:37:55;;;;;;;4.97;4.47;;;;;;;26.38;44.44;96320.44;2075734;28;20821;-66
2022/08/19 15:38:57;;;;;;;13.85;11.55;;;;;;;26.21;44.76;96325.03;2074117;28;20212;-65
2022/08/19 15:39:58;;;;;;;10.20;7.38;;;;;;;26.31;44.87;96324.00;2076717;28;20197;-65
2022/08/19 15:42:22;;;;;;;12.93;8.80;;;;;;;26.15;44.24;96322.25;2075177;28;20213;-65
2022/08/19 15:43:31;;;;;;;15.18;5.55;;;;;;;26.06;44.48;96322.25;2077413;28;20661;-65
2022/08/19 15:44:33;;;;;;;6.47;4.75;;;;;;;26.03;44.57;96319.06;2071036;28;20206;-65
2022/08/19 15:45:34;;;;;;;10.52;4.57;;;;;;;25.94;44.00;96336.16;2070829;28;20205;-65
2022/08/19 15:46:38;;;;;;;8.40;4.75;;;;;;;25.84;44.48;96329.19;2071650;28;20229;-65
2022/08/19 15:47:40;;;;;;;9.32;5.05;;;;;;;25.64;44.09;96334.06;2073452;28;20206;-65
2022/08/19 15:48:41;;;;;;;6.95;4.82;;;;;;;25.68;44.32;96315.88;2072866;28;20240;-65
2022/08/19 15:49:43;;;;;;;6.93;4.65;;;;;;;25.69;44.33;96325.56;2072827;28;20206;-65
2022/08/19 15:50:45;;;;;;;8.48;4.72;;;;;;;25.64;44.70;96334.06;2070988;28;20561;-65
2022/08/19 15:51:48;;;;;;;6.72;4.78;;;;;;;25.47;45.08;96327.09;2073636;28;20226;-65
2022/08/19 15:52:56;;;;;;;6.88;5.25;;;;;;;25.41;45.66;96332.13;2074602;28;20210;-65
2022/08/19 17:19:36;;;;;;;11.30;7.25;;;;;;;23.92;50.40;96348.81;2083967;28;20600;-66
2022/08/19 17:20:38;;;;;;;8.88;6.35;;;;;;;23.98;49.87;96344.69;2076332;28;20198;-67
2022/08/19 17:21:40;;;;;;;10.68;6.25;;;;;;;23.89;49.87;96333.94;2071518;28;20241;-67
2022/08/19 17:22:41;;;;;;;9.05;6.43;;;;;;;24.01;50.07;96352.34;2065868;28;20194;-66
2022/08/19 17:23:43;;;;;;;7.38;5.30;;;;;;;24.00;50.03;96356.00;2067030;28;20209;-66
2022/08/19 17:24:44;;;;;;;8.15;5.15;;;;;;;23.95;50.33;96357.34;2067548;28;20197;-66
2022/08/19 17:25:46;;;;;;;21.65;16.00;;;;;;;23.98;50.17;96353.50;2065479;28;20208;-66
2022/08/19 17:26:48;;;;;;;18.90;13.05;;;;;;;24.00;50.31;96361.34;2066953;28;20229;-67
